createdAt,value
2022-11-16T00:02:13.292Z,14.23
2022-11-16T00:04:43.079Z,14.80
2022-11-16T00:07:11.753Z,13.57
2022-11-16T00:09:39.826Z,13.13
2022-11-16T00:12:11.331Z,13.20
2022-11-16T00:14:39.587Z,12.63
2022-11-16T00:17:07.630Z,11.95
2022-11-16T00:19:35.640Z,12.18
2022-11-16T00:22:05.268Z,12.25
2022-11-16T00:24:33.418Z,13.00
2022-11-16T00:27:01.574Z,21.15
2022-11-16T00:29:29.736Z,34.00
2022-11-16T00:31:58.033Z,18.58
2022-11-16T00:34:26.337Z,16.05
2022-11-16T00:36:54.481Z,18.75
2022-11-16T00:39:24.113Z,22.95
2022-11-16T00:41:52.336Z,14.82
2022-11-16T00:44:20.470Z,11.93
2022-11-16T00:46:48.722Z,13.15
2022-11-16T00:49:17.155Z,13.20
2022-11-16T00:51:45.528Z,13.38
2022-11-16T00:54:13.983Z,18.23
2022-11-16T00:56:43.633Z,13.95
2022-11-16T00:59:12.995Z,11.75
2022-11-16T01:01:43.172Z,10.80
2022-11-16T01:04:11.356Z,10.68
2022-11-16T01:06:39.384Z,11.65
2022-11-16T01:09:07.482Z,17.80
2022-11-16T01:11:58.339Z,11.70
2022-11-16T01:14:27.813Z,12.18
2022-11-16T01:16:55.899Z,11.52
2022-11-16T01:19:24.025Z,21.83
2022-11-16T01:21:52.240Z,17.27
2022-11-16T01:24:20.399Z,12.65
2022-11-16T01:26:48.695Z,13.98
2022-11-16T01:29:17.117Z,14.10
2022-11-16T01:31:53.516Z,15.77
2022-11-16T01:34:21.840Z,11.50
2022-11-16T01:36:51.469Z,12.48
2022-11-16T01:39:20.320Z,11.90
2022-11-16T01:41:53.337Z,11.75
2022-11-16T01:44:54.508Z,12.57
2022-11-16T01:47:24.178Z,13.23
2022-11-16T01:49:55.738Z,16.90
2022-11-16T01:52:32.498Z,13.73
2022-11-16T01:55:02.107Z,14.70
2022-11-16T01:58:16.156Z,15.73
2022-11-16T02:00:44.309Z,13.93
2022-11-16T02:03:43.089Z,15.82
2022-11-16T02:06:33.356Z,15.43
2022-11-16T02:09:51.816Z,13.73
2022-11-16T02:12:38.723Z,15.30
2022-11-16T02:15:19.315Z,13.30
2022-11-16T02:18:05.309Z,14.88
2022-11-16T02:21:08.889Z,14.50
2022-11-16T02:24:12.401Z,14.02
2022-11-16T02:27:15.470Z,15.05
2022-11-16T02:29:49.590Z,16.00
2022-11-16T02:32:20.944Z,16.60
2022-11-16T02:34:55.316Z,15.48
2022-11-16T02:37:26.716Z,15.13
2022-11-16T02:39:58.927Z,16.05
2022-11-16T02:42:31.550Z,15.45
2022-11-16T02:45:03.347Z,16.50
2022-11-16T02:47:34.406Z,17.92
2022-11-16T02:50:10.119Z,17.98
2022-11-16T02:52:39.912Z,17.90
2022-11-16T02:55:10.791Z,19.55
2022-11-16T02:57:44.364Z,20.50
2022-11-16T03:00:22.456Z,20.98
2022-11-16T03:03:00.501Z,20.05
2022-11-16T03:05:33.396Z,18.98
2022-11-16T03:08:17.523Z,19.80
2022-11-16T03:11:07.119Z,17.55
2022-11-16T03:13:37.478Z,19.58
2022-11-16T03:16:13.669Z,19.77
2022-11-16T03:18:44.974Z,17.23
2022-11-16T03:21:18.524Z,16.08
2022-11-16T03:23:47.238Z,15.55
2022-11-16T03:26:20.408Z,15.45
2022-11-16T03:28:54.359Z,14.40
2022-11-16T03:31:31.073Z,15.60
2022-11-16T03:34:05.483Z,16.52
2022-11-16T03:36:36.943Z,15.25
2022-11-16T03:39:09.430Z,16.35
2022-11-16T03:41:43.261Z,15.25
2022-11-16T03:44:14.164Z,14.90
2022-11-16T03:46:45.388Z,14.23
2022-11-16T03:49:14.900Z,14.77
2022-11-16T03:51:44.074Z,15.60
2022-11-16T03:54:12.256Z,14.05
2022-11-16T03:56:41.217Z,15.68
2022-11-16T03:59:09.961Z,16.40
2022-11-16T04:01:41.870Z,16.65
2022-11-16T04:04:35.475Z,16.48
2022-11-16T04:07:22.707Z,16.75
2022-11-16T04:10:05.057Z,15.73
2022-11-16T04:12:52.011Z,16.05
2022-11-16T04:15:37.361Z,16.38
2022-11-16T04:18:23.559Z,16.85
2022-11-16T04:21:10.717Z,17.58
2022-11-16T04:23:56.318Z,16.60
2022-11-16T04:26:44.943Z,16.65
2022-11-16T04:29:13.729Z,16.48
2022-11-16T04:32:13.702Z,16.98
2022-11-16T04:34:59.607Z,16.38
2022-11-16T04:37:48.708Z,16.20
2022-11-16T04:40:26.410Z,15.45
2022-11-16T04:42:55.392Z,17.00
2022-11-16T04:45:42.542Z,16.15
2022-11-16T04:48:11.903Z,16.00
2022-11-16T04:50:41.660Z,15.07
2022-11-16T04:53:11.405Z,15.45
2022-11-16T04:55:51.056Z,14.93
2022-11-16T04:58:21.347Z,15.68
2022-11-16T05:00:50.521Z,15.05
2022-11-16T05:03:18.888Z,15.85
2022-11-16T05:05:46.928Z,15.93
2022-11-16T05:08:16.350Z,16.65
2022-11-16T05:10:46.605Z,16.55
2022-11-16T05:13:14.615Z,16.73
2022-11-16T05:15:46.481Z,16.90
2022-11-16T05:18:14.631Z,17.77
2022-11-16T05:21:00.012Z,17.80
2022-11-16T05:23:49.229Z,17.33
2022-11-16T05:26:20.706Z,19.55
2022-11-16T05:28:49.210Z,20.33
2022-11-16T05:31:17.242Z,20.00
2022-11-16T05:33:45.443Z,20.80
2022-11-16T05:36:15.659Z,20.40
2022-11-16T05:38:45.120Z,22.15
2022-11-16T05:41:13.290Z,22.48
2022-11-16T05:43:41.393Z,23.13
2022-11-16T05:46:15.552Z,25.17
2022-11-16T05:48:44.503Z,26.42
2022-11-16T05:51:13.690Z,27.65
2022-11-16T05:53:41.870Z,28.35
2022-11-16T05:56:14.306Z,25.10
2022-11-16T05:58:44.014Z,26.65
2022-11-16T06:01:12.076Z,28.65
2022-11-16T06:03:40.318Z,28.90
2022-11-16T06:06:09.205Z,29.13
2022-11-16T06:08:37.755Z,28.70
2022-11-16T06:11:11.290Z,29.45
2022-11-16T06:13:41.791Z,28.75
2022-11-16T06:16:10.400Z,29.17
2022-11-16T06:18:39.833Z,27.77
2022-11-16T06:21:10.106Z,27.98
2022-11-16T06:23:38.569Z,28.30
2022-11-16T06:26:07.770Z,27.52
2022-11-16T06:28:36.907Z,29.42
2022-11-16T06:31:07.779Z,28.52
2022-11-16T06:33:40.900Z,26.45
2022-11-16T06:36:18.363Z,25.70
2022-11-16T06:38:46.828Z,26.00
2022-11-16T06:41:15.412Z,23.92
2022-11-16T06:43:47.465Z,23.00
2022-11-16T06:46:19.240Z,23.65
2022-11-16T06:48:49.535Z,22.65
2022-11-16T06:51:18.868Z,22.48
2022-11-16T06:53:47.809Z,23.75
2022-11-16T06:56:17.050Z,21.52
2022-11-16T06:58:53.205Z,22.63
2022-11-16T07:01:23.580Z,21.70
2022-11-16T07:03:57.686Z,21.35
2022-11-16T07:06:25.855Z,22.13
2022-11-16T07:08:53.970Z,20.90
2022-11-16T07:11:26.227Z,19.77
2022-11-16T07:13:54.532Z,17.98
2022-11-16T07:16:24.195Z,17.52
2022-11-16T07:19:00.486Z,16.95
2022-11-16T07:21:31.720Z,17.90
2022-11-16T07:24:02.686Z,17.02
2022-11-16T07:26:31.539Z,16.85
2022-11-16T07:29:06.162Z,16.85
2022-11-16T07:31:38.581Z,17.35
2022-11-16T07:34:27.819Z,16.27
2022-11-16T07:37:08.726Z,17.33
2022-11-16T07:39:36.772Z,17.67
2022-11-16T07:42:11.643Z,17.58
2022-11-16T07:44:53.494Z,17.27
2022-11-16T07:47:22.983Z,17.48
2022-11-16T07:49:51.190Z,19.55
2022-11-16T07:52:21.702Z,18.30
2022-11-16T07:54:58.028Z,16.55
2022-11-16T07:57:28.548Z,17.95
2022-11-16T07:59:59.725Z,17.52
2022-11-16T08:02:31.262Z,17.40
2022-11-16T08:05:00.474Z,17.17
2022-11-16T08:07:30.200Z,15.68
2022-11-16T08:09:58.513Z,16.88
2022-11-16T08:12:26.650Z,17.67
2022-11-16T08:14:57.555Z,16.10
2022-11-16T08:17:27.870Z,16.30
2022-11-16T08:19:57.253Z,15.88
2022-11-16T08:22:25.453Z,15.40
2022-11-16T08:24:54.066Z,15.98
2022-11-16T08:27:23.954Z,15.27
2022-11-16T08:29:56.118Z,15.10
2022-11-16T08:32:24.578Z,14.90
2022-11-16T08:34:54.640Z,14.60
2022-11-16T08:37:26.054Z,13.25
2022-11-16T08:39:54.538Z,14.05
2022-11-16T08:42:22.824Z,13.93
2022-11-16T08:44:50.972Z,13.32
2022-11-16T08:47:21.093Z,13.15
2022-11-16T08:49:53.146Z,13.07
2022-11-16T08:52:24.171Z,12.88
2022-11-16T08:54:54.035Z,13.32
2022-11-16T08:57:22.449Z,12.77
2022-11-16T08:59:55.256Z,13.00
2022-11-16T09:02:25.630Z,11.85
2022-11-16T09:04:54.829Z,12.70
2022-11-16T09:07:24.218Z,12.20
2022-11-16T09:09:52.101Z,11.95
2022-11-16T09:12:20.094Z,11.20
2022-11-16T09:14:48.113Z,10.90
2022-11-16T09:17:20.302Z,11.00
2022-11-16T09:22:18.668Z,10.68
2022-11-16T09:24:48.008Z,10.55
2022-11-16T09:27:16.873Z,9.93
2022-11-16T09:29:45.016Z,10.00
2022-11-16T09:32:13.023Z,9.43
2022-11-16T09:34:41.025Z,10.10
2022-11-16T09:37:09.254Z,8.93
2022-11-16T09:39:37.416Z,9.75
2022-11-16T09:42:25.615Z,9.75
2022-11-16T09:45:01.275Z,9.10
2022-11-16T09:47:41.279Z,9.52
2022-11-16T09:50:21.149Z,8.70
2022-11-16T09:52:52.623Z,9.25
2022-11-16T09:55:26.806Z,8.77
2022-11-16T09:58:02.619Z,8.57
2022-11-16T10:00:32.271Z,8.60
2022-11-16T10:03:06.218Z,7.82
2022-11-16T10:05:40.202Z,8.03
2022-11-16T10:08:17.357Z,6.20
2022-11-16T10:10:54.231Z,5.65
2022-11-16T10:13:35.482Z,4.95
2022-11-16T10:16:11.001Z,4.90
2022-11-16T10:18:50.431Z,4.63
2022-11-16T10:21:33.142Z,5.18
2022-11-16T10:24:22.487Z,5.10
2022-11-16T10:26:59.498Z,4.72
2022-11-16T10:29:45.198Z,4.03
2022-11-16T10:32:25.929Z,4.30
2022-11-16T10:34:55.794Z,4.38
2022-11-16T10:37:29.239Z,4.03
2022-11-16T10:39:58.674Z,3.50
2022-11-16T10:42:32.446Z,3.33
2022-11-16T10:45:09.215Z,3.05
2022-11-16T10:47:44.718Z,3.47
2022-11-16T10:50:32.846Z,3.83
2022-11-16T10:53:01.438Z,3.72
2022-11-16T10:55:29.784Z,3.83
2022-11-16T10:58:00.125Z,3.05
2022-11-16T11:00:39.142Z,2.58
2022-11-16T11:03:09.569Z,2.80
2022-11-16T11:05:38.562Z,2.92
2022-11-16T11:08:10.398Z,2.72
2022-11-16T11:10:40.345Z,2.83
2022-11-16T11:13:23.575Z,2.30
2022-11-16T11:15:53.468Z,2.13
2022-11-16T11:18:29.127Z,2.50
2022-11-16T11:21:10.164Z,2.70
2022-11-16T11:23:45.171Z,2.03
2022-11-16T11:26:35.879Z,1.73
2022-11-16T11:29:21.688Z,2.05
2022-11-16T11:31:55.511Z,2.30
2022-11-16T11:34:26.622Z,2.20
2022-11-16T11:36:57.951Z,2.78
2022-11-16T11:39:36.531Z,3.20
2022-11-16T11:42:08.217Z,3.10
2022-11-16T11:44:49.216Z,2.80
2022-11-16T11:47:56.341Z,2.95
2022-11-16T11:50:20.619Z,3.55
2022-11-16T11:53:00.296Z,2.67
2022-11-16T11:55:28.631Z,2.58
2022-11-16T11:57:57.997Z,2.20
2022-11-16T12:00:27.149Z,2.50
2022-11-16T12:03:14.376Z,2.03
2022-11-16T12:05:57.887Z,1.73
2022-11-16T12:08:43.156Z,1.80
2022-11-16T12:14:10.958Z,1.70
2022-11-16T12:16:45.737Z,1.80
2022-11-16T12:19:31.723Z,1.83
2022-11-16T12:22:08.992Z,1.92
2022-11-16T12:24:52.549Z,2.28
2022-11-16T12:27:29.285Z,1.50
2022-11-16T12:30:02.348Z,2.00
2022-11-16T12:32:48.512Z,2.35
2022-11-16T12:35:39.594Z,3.33
2022-11-16T12:38:26.363Z,4.40
2022-11-16T12:41:08.958Z,3.20
2022-11-16T12:43:45.907Z,2.22
2022-11-16T12:46:20.786Z,2.17
2022-11-16T12:49:27.352Z,1.92
2022-11-16T12:52:13.642Z,1.83
2022-11-16T12:55:25.463Z,1.92
2022-11-16T12:58:03.671Z,2.15
2022-11-16T13:00:36.304Z,2.03
2022-11-16T13:03:18.890Z,2.08
2022-11-16T13:05:56.742Z,1.50
2022-11-16T13:08:37.455Z,2.10
2022-11-16T13:11:12.220Z,1.73
2022-11-16T13:16:10.177Z,1.20
2022-11-16T13:18:42.465Z,1.70
2022-11-16T13:21:22.022Z,1.20
2022-11-16T13:24:02.765Z,1.42
2022-11-16T13:26:37.646Z,2.08
2022-11-16T13:31:43.798Z,2.30
2022-11-16T13:34:18.362Z,2.10
2022-11-16T13:36:47.855Z,2.20
2022-11-16T13:39:22.517Z,1.60
2022-11-16T13:41:52.693Z,1.85
2022-11-16T13:44:29.500Z,1.85
2022-11-16T13:47:04.330Z,1.67
2022-11-16T13:52:22.768Z,1.40
2022-11-16T13:54:55.470Z,1.55
2022-11-16T13:57:27.156Z,1.05
2022-11-16T14:00:10.369Z,1.20
2022-11-16T14:02:40.510Z,1.30
2022-11-16T14:05:17.530Z,1.30
2022-11-16T14:07:49.621Z,1.02
2022-11-16T14:11:05.026Z,1.63
2022-11-16T14:13:41.055Z,2.60
2022-11-16T14:16:55.115Z,2.22
2022-11-16T14:19:55.189Z,1.10
2022-11-16T14:22:52.576Z,3.28
2022-11-16T14:25:33.273Z,3.85
2022-11-16T14:28:25.702Z,4.35
2022-11-16T14:31:06.572Z,2.70
2022-11-16T14:33:37.366Z,1.48
2022-11-16T14:36:09.059Z,1.25
2022-11-16T14:38:39.829Z,2.67
2022-11-16T14:41:14.570Z,2.90
2022-11-16T14:43:48.115Z,1.65
2022-11-16T14:46:23.282Z,1.15
2022-11-16T14:48:51.484Z,0.93
2022-11-16T14:51:24.162Z,1.10
2022-11-16T14:53:55.756Z,1.45
2022-11-16T14:56:24.056Z,1.50
2022-11-16T14:58:56.591Z,1.27
2022-11-16T15:01:27.525Z,1.30
2022-11-16T15:04:02.372Z,1.50
2022-11-16T15:06:34.402Z,2.40
2022-11-16T15:09:06.168Z,5.63
2022-11-16T15:11:54.967Z,3.35
2022-11-16T15:14:27.849Z,2.63
2022-11-16T15:16:57.432Z,2.60
2022-11-16T15:19:25.794Z,1.85
2022-11-16T15:21:55.735Z,1.77
2022-11-16T15:24:31.063Z,1.83
2022-11-16T15:27:11.554Z,1.60
2022-11-16T15:29:40.938Z,2.20
2022-11-16T15:32:16.201Z,2.42
2022-11-16T15:34:46.996Z,2.95
2022-11-16T15:37:15.326Z,4.13
2022-11-16T15:39:44.041Z,5.68
2022-11-16T15:42:16.458Z,6.30
2022-11-16T15:44:46.557Z,7.32
2022-11-16T15:47:15.385Z,6.60
2022-11-16T15:49:44.743Z,7.00
2022-11-16T15:52:13.424Z,8.23
2022-11-16T15:55:04.460Z,8.23
2022-11-16T15:57:32.781Z,7.15
2022-11-16T16:00:02.148Z,6.18
2022-11-16T16:02:35.150Z,7.53
2022-11-16T16:05:03.224Z,10.07
2022-11-16T16:07:38.363Z,6.95
2022-11-16T16:10:14.562Z,10.30
2022-11-16T16:12:48.634Z,7.05
2022-11-16T16:15:29.964Z,10.68
2022-11-16T16:17:59.868Z,10.93
2022-11-16T16:20:30.369Z,10.52
2022-11-16T16:23:12.408Z,9.50
2022-11-16T16:25:40.418Z,10.40
2022-11-16T16:28:08.588Z,11.27
2022-11-16T16:30:39.538Z,11.57
2022-11-16T16:33:07.730Z,8.32
2022-11-16T16:35:35.679Z,8.23
2022-11-16T16:38:03.656Z,7.80
2022-11-16T16:40:31.696Z,7.38
2022-11-16T16:42:59.655Z,10.45
2022-11-16T16:45:35.521Z,13.00
2022-11-16T16:48:05.076Z,15.02
2022-11-16T16:50:33.214Z,13.63
2022-11-16T16:53:01.323Z,15.65
2022-11-16T16:55:32.868Z,13.63
2022-11-16T16:58:03.830Z,16.33
2022-11-16T17:00:31.844Z,15.93
2022-11-16T17:03:01.552Z,17.38
2022-11-16T17:05:33.909Z,16.85
2022-11-16T17:08:02.571Z,15.18
2022-11-16T17:10:30.662Z,17.73
2022-11-16T17:13:02.446Z,11.02
2022-11-16T17:15:30.712Z,9.77
2022-11-16T17:17:59.879Z,8.10
2022-11-16T17:20:27.966Z,14.00
2022-11-16T17:22:58.159Z,15.88
2022-11-16T17:25:26.209Z,15.70
2022-11-16T17:27:54.356Z,28.02
2022-11-16T17:30:22.471Z,20.10
2022-11-16T17:32:50.587Z,18.60
2022-11-16T17:35:18.868Z,19.63
2022-11-16T17:37:46.903Z,19.67
2022-11-16T17:40:16.867Z,14.85
2022-11-16T17:42:44.922Z,13.38
2022-11-16T17:45:13.271Z,14.18
2022-11-16T17:47:41.221Z,14.00
2022-11-16T17:50:10.062Z,15.55
2022-11-16T17:52:38.159Z,14.52
2022-11-16T17:55:07.474Z,13.55
2022-11-16T17:57:36.795Z,15.40
2022-11-16T18:00:05.545Z,12.38
2022-11-16T18:02:35.195Z,13.60
2022-11-16T18:05:05.525Z,14.50
2022-11-16T18:07:33.488Z,13.52
2022-11-16T18:10:01.666Z,13.27
2022-11-16T18:12:30.343Z,15.63
2022-11-16T18:15:26.393Z,21.48
2022-11-16T18:17:47.865Z,24.08
2022-11-16T18:20:16.027Z,23.35
2022-11-16T18:22:43.970Z,27.35
2022-11-16T18:25:13.163Z,23.00
2022-11-16T18:27:41.141Z,13.68
2022-11-16T18:30:12.395Z,13.43
2022-11-16T18:32:40.942Z,12.85
2022-11-16T18:35:09.975Z,13.02
2022-11-16T18:37:37.991Z,11.65
2022-11-16T18:40:07.020Z,10.75
2022-11-16T18:42:35.010Z,11.30
2022-11-16T18:45:03.089Z,10.63
2022-11-16T18:47:32.531Z,9.95
2022-11-16T18:50:00.956Z,9.20
2022-11-16T18:52:28.999Z,27.52
2022-11-16T18:54:57.397Z,13.75
2022-11-16T18:57:25.466Z,13.48
2022-11-16T18:59:53.824Z,13.23
2022-11-16T19:02:21.776Z,17.08
2022-11-16T19:04:51.335Z,23.35
2022-11-16T19:07:19.347Z,18.33
2022-11-16T19:09:47.362Z,16.05
2022-11-16T19:12:15.392Z,15.95
2022-11-16T19:14:43.363Z,19.35
2022-11-16T19:17:11.420Z,25.30
2022-11-16T19:19:39.433Z,64.03
2022-11-16T19:22:08.781Z,49.83
2022-11-16T19:24:36.870Z,49.30
2022-11-16T19:27:04.918Z,23.13
2022-11-16T19:29:32.937Z,16.40
2022-11-16T19:32:00.972Z,14.68
2022-11-16T19:34:33.342Z,13.80
2022-11-16T19:37:01.700Z,15.07
2022-11-16T19:39:31.008Z,16.20
2022-11-16T19:41:59.048Z,14.75
2022-11-16T19:44:26.985Z,15.07
2022-11-16T19:46:54.964Z,14.73
2022-11-16T19:49:23.396Z,14.02
2022-11-16T19:51:51.262Z,13.75
2022-11-16T19:54:19.470Z,13.95
2022-11-16T19:56:53.722Z,12.52
2022-11-16T19:59:23.973Z,11.73
2022-11-16T20:01:52.415Z,12.35
2022-11-16T20:04:20.813Z,12.45
2022-11-16T20:06:49.140Z,11.45
2022-11-16T20:09:17.573Z,12.65
2022-11-16T20:11:45.701Z,12.32
2022-11-16T20:14:15.574Z,10.95
2022-11-16T20:16:47.203Z,12.90
2022-11-16T20:19:15.807Z,13.13
2022-11-16T20:21:45.177Z,13.48
2022-11-16T20:24:15.838Z,12.45
2022-11-16T20:26:46.619Z,13.10
2022-11-16T20:29:17.622Z,13.52
2022-11-16T20:31:47.043Z,15.27
2022-11-16T20:34:16.880Z,14.40
2022-11-16T20:36:47.057Z,14.90
2022-11-16T20:39:16.587Z,27.10
2022-11-16T20:41:45.232Z,16.90
2022-11-16T20:44:18.349Z,19.20
2022-11-16T20:46:46.845Z,17.70
2022-11-16T20:49:14.951Z,18.17
2022-11-16T20:51:42.861Z,19.52
2022-11-16T20:54:10.880Z,19.00
2022-11-16T20:56:38.817Z,20.95
2022-11-16T20:59:06.830Z,23.88
2022-11-16T21:01:37.019Z,23.85
2022-11-16T21:04:06.722Z,19.42
2022-11-16T21:06:34.999Z,20.70
2022-11-16T21:09:04.710Z,20.67
2022-11-16T21:11:54.749Z,16.38
2022-11-16T21:14:22.760Z,16.00
2022-11-16T21:16:52.072Z,10.77
2022-11-16T21:19:20.438Z,14.85
2022-11-16T21:21:48.412Z,15.93
2022-11-16T21:24:16.438Z,15.60
2022-11-16T21:26:44.940Z,17.70
2022-11-16T21:29:12.895Z,18.08
2022-11-16T21:31:41.008Z,21.08
2022-11-16T21:34:10.442Z,22.33
2022-11-16T21:36:38.479Z,19.98
2022-11-16T21:39:06.436Z,30.98
2022-11-16T21:41:34.790Z,17.58
2022-11-16T21:44:03.104Z,16.45
2022-11-16T21:46:31.220Z,16.65
2022-11-16T21:48:59.522Z,14.93
2022-11-16T21:51:28.897Z,14.35
2022-11-16T21:53:56.986Z,14.18
2022-11-16T21:56:26.408Z,14.77
2022-11-16T21:58:55.157Z,13.88
2022-11-16T22:01:24.488Z,14.85
2022-11-16T22:04:06.768Z,15.90
2022-11-16T22:06:54.160Z,15.32
2022-11-16T22:09:22.918Z,16.77
2022-11-16T22:11:50.922Z,16.67
2022-11-16T22:14:18.856Z,16.77
2022-11-16T22:16:46.964Z,16.80
2022-11-16T22:19:15.062Z,16.52
2022-11-16T22:21:44.423Z,17.17
2022-11-16T22:24:12.427Z,27.75
2022-11-16T22:26:41.098Z,16.58
2022-11-16T22:29:09.136Z,21.20
2022-11-16T22:31:37.251Z,19.83
2022-11-16T22:34:06.490Z,17.55
2022-11-16T22:36:34.463Z,17.55
2022-11-16T22:39:03.915Z,16.70
2022-11-16T22:41:31.853Z,16.35
2022-11-16T22:43:59.806Z,17.05
2022-11-16T22:46:27.908Z,16.67
2022-11-16T22:48:55.935Z,16.10
2022-11-16T22:51:26.001Z,17.88
2022-11-16T22:53:55.044Z,18.40
2022-11-16T22:56:25.145Z,16.90
2022-11-16T22:58:53.323Z,15.05
2022-11-16T23:01:21.880Z,16.23
2022-11-16T23:03:50.219Z,15.10
2022-11-16T23:06:18.333Z,15.95
2022-11-16T23:08:46.412Z,14.38
2022-11-16T23:11:34.085Z,14.65
2022-11-16T23:14:22.585Z,13.68
2022-11-16T23:16:51.288Z,14.35
2022-11-16T23:19:35.242Z,15.25
2022-11-16T23:22:21.510Z,15.30
2022-11-16T23:25:06.831Z,16.05
2022-11-16T23:27:41.501Z,17.23
2022-11-16T23:32:41.767Z,18.55
2022-11-16T23:35:10.629Z,17.23
2022-11-16T23:37:51.005Z,16.27
2022-11-16T23:40:19.258Z,16.52
2022-11-16T23:43:04.586Z,16.73
2022-11-16T23:45:34.127Z,15.77
2022-11-16T23:48:02.229Z,14.98
2022-11-16T23:50:30.289Z,17.42
2022-11-16T23:52:59.041Z,17.20
2022-11-16T23:55:27.781Z,19.23
2022-11-16T23:57:56.089Z,16.70
